createdAt,value
2022-09-03T00:00:28.717Z,14.170837
2022-09-03T00:01:38.442Z,14.170837
2022-09-03T00:02:46.260Z,14.140625
2022-09-03T00:03:55.714Z,14.110413
2022-09-03T00:05:05.402Z,14.120483
2022-09-03T00:06:13.087Z,14.120483
2022-09-03T00:07:22.755Z,14.110413
2022-09-03T00:08:31.416Z,14.110413
2022-09-03T00:09:42.096Z,14.100342
2022-09-03T00:10:49.742Z,14.110413
2022-09-03T00:11:58.429Z,14.150696
2022-09-03T00:13:07.078Z,14.150696
2022-09-03T00:14:14.728Z,14.150696
2022-09-03T00:15:24.387Z,14.140625
2022-09-03T00:16:33.041Z,14.140625
2022-09-03T00:17:40.715Z,14.0802
2022-09-03T00:18:50.392Z,14.100342
2022-09-03T00:19:58.052Z,14.0802
2022-09-03T00:21:06.706Z,14.150696
2022-09-03T00:22:16.398Z,14.120483
2022-09-03T00:23:24.068Z,14.120483
2022-09-03T00:24:33.721Z,14.140625
2022-09-03T00:25:42.374Z,14.170837
2022-09-03T00:26:51.041Z,14.150696
2022-09-03T00:28:00.720Z,14.170837
2022-09-03T00:29:09.429Z,14.170837
2022-09-03T00:30:17.514Z,14.180908
2022-09-03T00:31:26.962Z,14.221191
2022-09-03T00:32:34.408Z,14.231262
2022-09-03T00:33:44.075Z,14.221191
2022-09-03T00:34:52.741Z,14.221191
2022-09-03T00:36:02.476Z,14.180908
2022-09-03T00:37:12.424Z,14.180908
2022-09-03T00:38:21.823Z,14.150696
2022-09-03T00:39:30.464Z,14.150696
2022-09-03T00:40:40.129Z,14.150696
2022-09-03T00:41:47.804Z,14.150696
2022-09-03T00:42:57.445Z,14.150696
2022-09-03T00:44:06.110Z,14.140625
2022-09-03T00:45:14.759Z,14.120483
2022-09-03T00:46:25.448Z,14.120483
2022-09-03T00:47:33.078Z,14.070129
2022-09-03T00:48:41.782Z,14.039917
2022-09-03T00:49:52.464Z,13.989563
2022-09-03T00:51:00.160Z,13.959351
2022-09-03T00:52:09.930Z,13.929138
2022-09-03T00:53:20.610Z,13.848572
2022-09-03T00:54:28.275Z,13.808289
2022-09-03T00:55:37.938Z,13.808289
2022-09-03T00:56:45.589Z,13.788147
2022-09-03T00:57:54.250Z,13.768005
2022-09-03T00:59:03.908Z,13.737793
2022-09-03T01:00:11.563Z,13.717651
2022-09-03T01:01:21.321Z,13.69751
2022-09-03T01:02:29.032Z,13.647156
2022-09-03T01:03:37.589Z,13.627014
2022-09-03T01:04:47.261Z,13.627014
2022-09-03T01:05:57.461Z,13.616943
2022-09-03T01:07:04.572Z,13.616943
2022-09-03T01:08:14.302Z,13.586731
2022-09-03T01:09:21.957Z,13.566589
2022-09-03T01:10:31.631Z,13.556519
2022-09-03T01:11:40.286Z,13.536377
2022-09-03T01:12:47.945Z,13.526306
2022-09-03T01:13:57.594Z,13.536377
2022-09-03T01:15:05.272Z,13.526306
2022-09-03T01:16:13.963Z,13.516235
2022-09-03T01:17:22.630Z,13.496094
2022-09-03T01:18:31.345Z,13.465881
2022-09-03T01:19:41.033Z,13.455811
2022-09-03T01:20:50.708Z,13.435669
2022-09-03T01:21:58.366Z,13.385315
2022-09-03T01:23:08.029Z,13.405457
2022-09-03T01:24:15.715Z,13.375244
2022-09-03T01:25:24.392Z,13.345032
2022-09-03T01:26:33.081Z,13.314819
2022-09-03T01:27:41.790Z,13.304749
2022-09-03T01:28:51.440Z,13.304749
2022-09-03T01:30:00.171Z,13.274536
2022-09-03T01:31:07.828Z,13.254395
2022-09-03T01:32:17.460Z,13.19397
2022-09-03T01:33:25.136Z,13.153687
2022-09-03T01:34:33.823Z,13.133545
2022-09-03T01:35:43.515Z,13.153687
2022-09-03T01:36:52.180Z,13.153687
2022-09-03T01:38:01.896Z,13.163757
2022-09-03T01:39:10.559Z,13.19397
2022-09-03T01:40:18.227Z,13.183899
2022-09-03T01:41:27.898Z,13.163757
2022-09-03T01:42:35.554Z,13.123474
2022-09-03T01:43:45.455Z,13.123474
2022-09-03T01:44:53.894Z,13.093262
2022-09-03T01:46:03.601Z,13.093262
2022-09-03T01:47:13.305Z,13.113403
2022-09-03T01:48:21.939Z,13.093262
2022-09-03T01:49:31.582Z,13.093262
2022-09-03T01:50:41.272Z,13.113403
2022-09-03T01:51:49.923Z,13.093262
2022-09-03T01:52:59.584Z,13.093262
2022-09-03T01:54:11.026Z,13.083191
2022-09-03T01:55:19.996Z,13.093262
2022-09-03T01:56:29.645Z,13.083191
2022-09-03T01:57:39.319Z,13.083191
2022-09-03T01:58:47.978Z,13.083191
2022-09-03T01:59:57.646Z,13.093262
2022-09-03T02:01:06.367Z,13.093262
2022-09-03T02:02:16.044Z,13.123474
2022-09-03T02:03:25.663Z,13.093262
2022-09-03T02:04:33.361Z,13.153687
2022-09-03T02:05:43.098Z,13.163757
2022-09-03T02:06:51.777Z,13.183899
2022-09-03T02:08:01.602Z,13.204041
2022-09-03T02:09:12.181Z,13.254395
2022-09-03T02:10:19.910Z,13.274536
2022-09-03T02:11:29.575Z,13.274536
2022-09-03T02:12:38.246Z,13.254395
2022-09-03T02:13:46.915Z,13.274536
2022-09-03T02:14:56.593Z,13.274536
2022-09-03T02:16:05.331Z,13.284607
2022-09-03T02:17:14.931Z,13.274536
2022-09-03T02:18:23.745Z,13.304749
2022-09-03T02:19:32.278Z,13.284607
2022-09-03T02:20:41.945Z,13.304749
2022-09-03T02:21:49.697Z,13.284607
2022-09-03T02:22:58.330Z,13.284607
2022-09-03T02:24:08.059Z,13.274536
2022-09-03T02:25:17.721Z,13.284607
2022-09-03T02:26:27.387Z,13.284607
2022-09-03T02:27:37.071Z,13.274536
2022-09-03T02:28:45.736Z,13.284607
2022-09-03T02:29:55.435Z,13.274536
2022-09-03T02:31:04.131Z,13.274536
2022-09-03T02:32:12.732Z,13.274536
2022-09-03T02:33:22.394Z,13.224182
2022-09-03T02:34:30.052Z,13.204041
2022-09-03T02:35:39.748Z,13.183899
2022-09-03T02:36:48.408Z,13.183899
2022-09-03T02:37:56.085Z,13.19397
2022-09-03T02:40:54.623Z,13.153687
2022-09-03T02:42:03.294Z,13.123474
2022-09-03T02:43:35.508Z,13.123474
2022-09-03T02:44:45.184Z,13.123474
2022-09-03T02:45:52.924Z,13.133545
2022-09-03T02:47:02.706Z,13.133545
2022-09-03T02:48:12.343Z,13.133545
2022-09-03T02:49:21.001Z,13.133545
2022-09-03T02:50:30.767Z,13.123474
2022-09-03T02:51:40.486Z,13.113403
2022-09-03T02:52:49.192Z,13.123474
2022-09-03T02:53:58.859Z,13.113403
2022-09-03T02:55:07.534Z,13.123474
2022-09-03T02:56:16.197Z,13.133545
2022-09-03T02:57:27.584Z,13.123474
2022-09-03T02:58:32.563Z,13.123474
2022-09-03T02:59:42.223Z,13.113403
2022-09-03T03:00:49.883Z,13.093262
2022-09-03T03:02:01.007Z,13.093262
2022-09-03T03:03:08.223Z,13.083191
2022-09-03T03:04:15.890Z,13.083191
2022-09-03T03:05:25.569Z,13.042908
2022-09-03T03:06:35.236Z,12.952271
2022-09-03T03:07:44.883Z,12.932129
2022-09-03T03:08:54.685Z,12.901917
2022-09-03T03:10:02.361Z,12.901917
2022-09-03T03:11:12.039Z,12.911987
2022-09-03T03:12:21.695Z,12.901917
2022-09-03T03:13:30.371Z,12.871704
2022-09-03T03:14:40.043Z,12.871704
2022-09-03T03:15:48.693Z,12.851562
2022-09-03T03:16:58.391Z,12.851562
2022-09-03T03:18:08.062Z,12.82135
2022-09-03T03:19:15.709Z,12.801208
2022-09-03T03:20:24.495Z,12.791138
2022-09-03T03:21:34.182Z,12.730713
2022-09-03T03:22:42.884Z,12.720642
2022-09-03T03:23:52.555Z,12.680359
2022-09-03T03:25:01.247Z,12.650146
2022-09-03T03:26:08.930Z,12.609863
2022-09-03T03:27:18.598Z,12.599792
2022-09-03T03:28:27.285Z,12.599792
2022-09-03T03:29:35.933Z,12.579651
2022-09-03T03:30:45.652Z,12.579651
2022-09-03T03:31:53.345Z,12.599792
2022-09-03T03:33:03.063Z,12.599792
2022-09-03T03:34:11.719Z,12.599792
2022-09-03T03:35:20.380Z,12.599792
2022-09-03T03:36:30.059Z,12.609863
2022-09-03T03:37:38.729Z,12.599792
2022-09-03T03:38:47.444Z,12.609863
2022-09-03T03:39:57.161Z,12.609863
2022-09-03T03:41:04.813Z,12.609863
2022-09-03T03:42:14.457Z,12.599792
2022-09-03T03:43:23.154Z,12.599792
2022-09-03T03:44:30.838Z,12.599792
2022-09-03T03:45:40.569Z,12.579651
2022-09-03T03:46:48.180Z,12.609863
2022-09-03T03:47:56.957Z,12.599792
2022-09-03T03:49:06.644Z,12.579651
2022-09-03T03:50:15.313Z,12.579651
2022-09-03T03:51:24.985Z,12.549438
2022-09-03T03:52:33.657Z,12.489014
2022-09-03T03:53:41.351Z,12.44873
2022-09-03T03:54:51.161Z,12.398376
2022-09-03T03:55:59.816Z,12.388306
2022-09-03T03:57:07.603Z,12.388306
2022-09-03T03:58:17.275Z,12.358093
2022-09-03T03:59:25.932Z,12.31781
2022-09-03T04:00:34.641Z,12.287598
2022-09-03T04:01:44.375Z,12.267456
2022-09-03T04:02:52.078Z,12.267456
2022-09-03T04:04:01.698Z,12.277527
2022-09-03T04:05:10.338Z,12.307739
2022-09-03T04:06:20.039Z,12.287598
2022-09-03T04:07:29.699Z,12.287598
2022-09-03T04:08:39.390Z,12.277527
2022-09-03T04:09:50.038Z,12.277527
2022-09-03T04:10:59.723Z,12.247314
2022-09-03T04:12:09.410Z,12.237244
2022-09-03T04:13:19.072Z,12.207031
2022-09-03T04:14:28.748Z,12.19696
2022-09-03T04:15:36.401Z,12.116394
2022-09-03T04:16:45.165Z,12.06604
2022-09-03T04:17:52.828Z,12.055969
2022-09-03T04:19:02.511Z,12.055969
2022-09-03T04:20:12.178Z,12.055969
2022-09-03T04:21:20.862Z,12.025757
2022-09-03T04:22:30.538Z,11.985474
2022-09-03T04:23:39.239Z,11.965332
2022-09-03T04:24:46.887Z,11.93512
2022-09-03T04:25:56.558Z,11.904907
2022-09-03T04:27:05.276Z,11.884766
2022-09-03T04:28:13.994Z,11.884766
2022-09-03T04:29:23.725Z,11.904907
2022-09-03T04:30:31.431Z,11.914978
2022-09-03T04:31:41.060Z,11.93512
2022-09-03T04:32:49.717Z,11.965332
2022-09-03T04:33:57.396Z,11.94519
2022-09-03T04:35:07.118Z,11.93512
2022-09-03T04:36:15.775Z,11.93512
2022-09-03T04:37:24.439Z,11.93512
2022-09-03T04:38:34.192Z,11.93512
2022-09-03T04:39:42.895Z,11.965332
2022-09-03T04:40:52.540Z,11.985474
2022-09-03T04:42:00.275Z,12.015686
2022-09-03T04:43:09.880Z,12.055969
2022-09-03T04:44:18.537Z,12.086182
2022-09-03T04:45:27.217Z,12.116394
2022-09-03T04:46:36.902Z,12.19696
2022-09-03T04:47:44.573Z,12.237244
2022-09-03T04:48:53.243Z,12.277527
2022-09-03T04:50:02.901Z,12.307739
2022-09-03T04:51:10.548Z,12.368164
2022-09-03T04:52:20.242Z,12.368164
2022-09-03T04:53:28.902Z,12.398376
2022-09-03T04:54:36.566Z,12.418518
2022-09-03T04:55:46.224Z,12.428589
2022-09-03T04:56:53.914Z,12.499084
2022-09-03T04:58:03.690Z,12.549438
2022-09-03T04:59:13.372Z,12.7005
2022-09-03T05:00:21.016Z,12.791138
2022-09-03T05:01:30.809Z,12.871704
2022-09-03T05:02:38.381Z,12.932129
2022-09-03T05:03:46.156Z,12.932129
2022-09-03T05:04:55.816Z,12.982483
2022-09-03T05:06:03.472Z,13.032837
2022-09-03T05:07:13.134Z,13.093262
2022-09-03T05:08:22.819Z,13.083191
2022-09-03T05:09:30.467Z,13.042908
2022-09-03T05:10:40.138Z,13.032837
2022-09-03T05:11:48.815Z,13.052979
2022-09-03T05:12:57.482Z,13.042908
2022-09-03T05:14:07.225Z,13.083191
2022-09-03T05:15:14.918Z,13.163757
2022-09-03T05:16:24.647Z,13.254395
2022-09-03T05:17:37.652Z,13.345032
2022-09-03T05:18:43.923Z,13.465881
2022-09-03T05:19:53.582Z,13.516235
2022-09-03T05:21:02.306Z,13.586731
2022-09-03T05:22:11.960Z,13.667297
2022-09-03T05:23:21.621Z,13.69751
2022-09-03T05:24:30.299Z,13.737793
2022-09-03T05:25:38.946Z,13.747864
2022-09-03T05:26:49.603Z,13.82843
2022-09-03T05:27:57.284Z,13.919067
2022-09-03T05:29:06.960Z,13.999634
2022-09-03T05:30:16.622Z,14.100342
2022-09-03T05:31:24.336Z,14.150696
2022-09-03T05:32:33.971Z,14.221191
2022-09-03T05:33:41.626Z,14.291687
2022-09-03T05:34:50.307Z,14.352112
2022-09-03T05:35:59.984Z,14.402466
2022-09-03T05:37:07.734Z,14.432678
2022-09-03T05:38:17.435Z,14.362183
2022-09-03T05:39:26.138Z,14.291687
2022-09-03T05:40:33.779Z,14.251404
2022-09-03T05:41:43.427Z,14.261475
2022-09-03T05:42:52.097Z,14.251404
2022-09-03T05:44:00.811Z,14.261475
2022-09-03T05:45:10.516Z,14.231262
2022-09-03T05:46:19.195Z,14.231262
2022-09-03T05:47:28.879Z,14.20105
2022-09-03T05:48:37.538Z,14.180908
2022-09-03T05:49:45.233Z,14.180908
2022-09-03T05:50:54.886Z,14.20105
2022-09-03T05:52:02.544Z,14.221191
2022-09-03T05:53:11.199Z,14.261475
2022-09-03T05:54:20.857Z,14.291687
2022-09-03T05:55:30.554Z,14.362183
2022-09-03T05:56:40.286Z,14.432678
2022-09-03T05:57:55.969Z,14.503174
2022-09-03T05:59:03.654Z,14.533386
2022-09-03T06:00:12.325Z,14.58374
2022-09-03T06:01:22.128Z,14.654236
2022-09-03T06:02:29.878Z,14.684448
2022-09-03T06:03:39.554Z,14.724731
2022-09-03T06:04:49.194Z,14.775085
2022-09-03T06:05:57.851Z,14.805298
2022-09-03T06:07:07.564Z,14.83551
2022-09-03T06:08:16.204Z,14.855652
2022-09-03T06:09:25.875Z,14.906006
2022-09-03T06:10:40.804Z,14.95636
2022-09-03T06:11:46.282Z,15.026855
2022-09-03T06:12:55.854Z,15.08728
2022-09-03T06:14:04.538Z,15.137634
2022-09-03T06:15:14.194Z,15.20813
2022-09-03T06:16:29.117Z,15.268555
2022-09-03T06:17:33.540Z,15.328979
2022-09-03T06:18:42.235Z,15.419617
2022-09-03T06:19:51.960Z,15.469971
2022-09-03T06:21:00.625Z,15.550537
2022-09-03T06:22:10.314Z,15.641174
2022-09-03T06:23:19.001Z,15.721741
2022-09-03T06:24:28.684Z,15.772095
2022-09-03T06:25:38.375Z,15.83252
2022-09-03T06:26:47.047Z,15.882874
2022-09-03T06:27:55.698Z,15.943298
2022-09-03T06:29:05.384Z,16.023865
2022-09-03T06:30:15.078Z,16.124573
2022-09-03T06:31:24.899Z,16.174927
2022-09-03T06:32:34.435Z,16.255493
2022-09-03T06:33:43.104Z,16.356201
2022-09-03T06:34:52.826Z,16.406555
2022-09-03T06:36:03.747Z,16.497192
2022-09-03T06:37:11.145Z,16.537476
2022-09-03T06:38:20.836Z,16.537476
2022-09-03T06:39:29.521Z,16.527405
2022-09-03T06:40:39.176Z,16.537476
2022-09-03T06:41:46.859Z,16.527405
2022-09-03T06:42:56.524Z,16.46698
2022-09-03T06:44:05.202Z,16.456909
2022-09-03T06:45:12.852Z,16.416626
2022-09-03T06:46:22.547Z,16.416626
2022-09-03T06:47:32.241Z,16.376343
2022-09-03T06:48:41.943Z,16.386414
2022-09-03T06:49:51.608Z,16.416626
2022-09-03T06:50:59.372Z,16.46698
2022-09-03T06:52:09.029Z,16.497192
2022-09-03T06:53:17.714Z,16.507263
2022-09-03T06:54:26.387Z,16.507263
2022-09-03T06:55:36.085Z,16.456909
2022-09-03T06:56:45.741Z,16.416626
2022-09-03T06:57:54.428Z,16.305847
2022-09-03T06:59:04.125Z,16.225281
2022-09-03T07:00:11.795Z,16.285706
2022-09-03T07:01:21.646Z,16.34613
2022-09-03T07:02:30.264Z,16.416626
2022-09-03T07:03:39.967Z,16.426697
2022-09-03T07:04:49.622Z,16.456909
2022-09-03T07:05:57.282Z,16.497192
2022-09-03T07:07:05.939Z,16.497192
2022-09-03T07:08:15.667Z,16.46698
2022-09-03T07:09:23.281Z,16.426697
2022-09-03T07:10:32.993Z,16.386414
2022-09-03T07:11:41.642Z,16.406555
2022-09-03T07:12:51.406Z,16.416626
2022-09-03T07:14:01.074Z,16.426697
2022-09-03T07:15:09.777Z,16.376343
2022-09-03T07:16:18.514Z,16.376343
2022-09-03T07:17:28.137Z,16.376343
2022-09-03T07:18:35.805Z,16.386414
2022-09-03T07:19:45.455Z,16.406555
2022-09-03T07:20:54.122Z,16.46698
2022-09-03T07:22:01.816Z,16.46698
2022-09-03T07:23:11.492Z,16.507263
2022-09-03T07:24:20.133Z,16.487122
2022-09-03T07:25:28.779Z,16.497192
2022-09-03T07:26:38.440Z,16.416626
2022-09-03T07:27:47.129Z,16.34613
2022-09-03T07:28:56.823Z,16.315918
2022-09-03T07:30:06.507Z,16.315918
2022-09-03T07:31:15.205Z,16.325989
2022-09-03T07:32:24.896Z,16.34613
2022-09-03T07:33:33.939Z,16.325989
2022-09-03T07:34:42.233Z,16.325989
2022-09-03T07:35:51.897Z,16.305847
2022-09-03T07:37:00.569Z,16.255493
2022-09-03T07:38:10.241Z,16.255493
2022-09-03T07:39:20.096Z,16.225281
2022-09-03T07:40:27.663Z,16.235352
2022-09-03T07:41:37.340Z,16.235352
2022-09-03T07:42:46.040Z,16.205139
2022-09-03T07:43:55.651Z,16.174927
2022-09-03T07:45:05.374Z,16.174927
2022-09-03T07:46:14.128Z,16.195068
2022-09-03T07:47:27.065Z,16.164856
2022-09-03T07:48:36.763Z,16.134644
2022-09-03T07:49:41.077Z,16.09436
2022-09-03T07:50:50.753Z,16.09436
2022-09-03T07:51:58.417Z,16.104431
2022-09-03T07:53:07.091Z,16.104431
2022-09-03T07:54:16.774Z,16.054077
2022-09-03T07:55:24.426Z,16.09436
2022-09-03T07:56:33.216Z,16.134644
2022-09-03T07:57:41.891Z,16.134644
2022-09-03T07:58:50.543Z,16.104431
2022-09-03T08:00:00.213Z,16.09436
2022-09-03T08:01:08.032Z,16.08429
2022-09-03T08:02:16.556Z,16.104431
2022-09-03T08:03:26.326Z,16.104431
2022-09-03T08:04:35.952Z,16.134644
2022-09-03T08:05:45.608Z,16.124573
2022-09-03T08:06:55.320Z,16.054077
2022-09-03T08:08:03.050Z,16.09436
2022-09-03T08:09:14.042Z,16.054077
2022-09-03T08:10:21.395Z,16.054077
2022-09-03T08:11:30.080Z,16.013794
2022-09-03T08:12:39.748Z,16.013794
2022-09-03T08:13:47.567Z,16.013794
2022-09-03T08:14:57.234Z,16.044006
2022-09-03T08:16:06.935Z,16.104431
2022-09-03T08:17:14.567Z,16.124573
2022-09-03T08:18:24.396Z,16.164856
2022-09-03T08:19:33.030Z,16.195068
2022-09-03T08:20:41.692Z,16.255493
2022-09-03T08:21:51.376Z,16.305847
2022-09-03T08:22:59.049Z,16.325989
2022-09-03T08:24:08.745Z,16.376343
2022-09-03T08:25:17.503Z,16.426697
2022-09-03T08:26:25.160Z,16.507263
2022-09-03T08:27:35.212Z,16.537476
2022-09-03T08:28:42.517Z,16.527405
2022-09-03T08:29:51.168Z,16.567688
2022-09-03T08:31:00.933Z,16.607971
2022-09-03T08:32:08.542Z,16.688538
2022-09-03T08:33:18.181Z,16.759033
2022-09-03T08:34:26.853Z,16.789246
2022-09-03T08:35:34.500Z,16.859741
2022-09-03T08:36:44.202Z,16.940308
2022-09-03T08:37:56.639Z,17.061157
2022-09-03T08:39:02.567Z,17.081299
2022-09-03T08:40:12.223Z,17.141724
2022-09-03T08:41:20.901Z,17.22229
2022-09-03T08:42:30.593Z,17.292786
2022-09-03T08:43:39.274Z,17.383423
2022-09-03T08:44:48.941Z,17.514343
2022-09-03T08:45:57.599Z,17.59491
2022-09-03T08:47:05.283Z,17.715759
2022-09-03T08:48:15.007Z,17.866821
2022-09-03T08:49:23.681Z,18.068237
2022-09-03T08:50:32.352Z,18.249512
2022-09-03T08:51:42.023Z,18.400574
2022-09-03T08:52:50.680Z,18.702698
2022-09-03T08:54:00.369Z,18.783264
2022-09-03T08:55:08.047Z,18.742981
2022-09-03T08:56:16.715Z,18.702698
2022-09-03T08:57:26.395Z,18.73291
2022-09-03T08:58:35.078Z,18.833618
2022-09-03T08:59:43.778Z,18.954468
2022-09-03T09:00:53.453Z,19.035034
2022-09-03T09:02:01.215Z,19.176025
2022-09-03T09:03:10.806Z,19.186096
2022-09-03T09:04:20.529Z,19.286804
2022-09-03T09:05:28.210Z,19.48822
2022-09-03T09:06:37.910Z,19.709778
2022-09-03T09:07:47.581Z,19.850769
2022-09-03T09:08:56.257Z,20.132751
2022-09-03T09:10:05.963Z,20.414734
2022-09-03T09:11:13.688Z,20.555725
2022-09-03T09:12:23.345Z,20.596008
2022-09-03T09:13:33.004Z,20.686646
2022-09-03T09:14:40.670Z,20.847778
2022-09-03T09:15:50.361Z,21.139832
2022-09-03T09:16:59.029Z,21.391602
2022-09-03T09:18:07.677Z,21.522522
2022-09-03T09:19:17.346Z,21.824646
2022-09-03T09:20:24.997Z,21.673584
2022-09-03T09:21:34.661Z,21.462097
2022-09-03T09:22:47.275Z,21.351318
2022-09-03T09:23:52.972Z,21.300964
2022-09-03T09:25:02.628Z,21.149902
2022-09-03T09:26:10.404Z,21.069336
2022-09-03T09:27:20.083Z,21.069336
2022-09-03T09:28:29.784Z,21.089478
2022-09-03T09:29:37.451Z,21.109619
2022-09-03T09:30:48.183Z,20.98877
2022-09-03T09:31:56.808Z,20.817566
2022-09-03T09:33:06.512Z,20.74707
2022-09-03T09:34:16.231Z,20.696716
2022-09-03T09:35:24.931Z,20.74707
2022-09-03T09:36:33.610Z,20.74707
2022-09-03T09:37:43.285Z,20.807495
2022-09-03T09:38:50.944Z,20.948486
2022-09-03T09:40:00.731Z,20.898132
2022-09-03T09:41:10.309Z,20.86792
2022-09-03T09:42:17.964Z,20.99884
2022-09-03T09:43:27.660Z,21.290894
2022-09-03T09:44:35.321Z,21.663513
2022-09-03T09:45:44.031Z,21.804504
2022-09-03T09:46:54.875Z,21.875
2022-09-03T09:48:01.401Z,21.955566
2022-09-03T09:49:11.074Z,22.076416
2022-09-03T09:50:24.882Z,22.24762
2022-09-03T09:51:28.465Z,22.358398
2022-09-03T09:52:38.164Z,22.50946
2022-09-03T09:53:46.833Z,22.650452
2022-09-03T09:54:54.494Z,22.76123
2022-09-03T09:56:05.182Z,22.811584
2022-09-03T09:57:13.922Z,22.88208
2022-09-03T09:58:23.594Z,23.083496
2022-09-03T09:59:33.301Z,23.425903
2022-09-03T10:00:40.975Z,23.738098
2022-09-03T10:01:50.682Z,23.858948
2022-09-03T10:02:59.519Z,23.687744
2022-09-03T10:04:08.256Z,23.38562
2022-09-03T10:05:17.912Z,23.053284
2022-09-03T10:06:25.585Z,22.76123
2022-09-03T10:07:35.256Z,22.700806
2022-09-03T10:08:43.946Z,22.690735
2022-09-03T10:09:52.601Z,22.801514
2022-09-03T10:11:02.259Z,22.942505
2022-09-03T10:12:10.918Z,22.902222
2022-09-03T10:13:18.572Z,22.962646
2022-09-03T10:14:28.422Z,23.033142
2022-09-03T10:15:37.146Z,22.932434
2022-09-03T10:16:46.779Z,22.962646
2022-09-03T10:17:56.694Z,22.88208
2022-09-03T10:19:06.391Z,22.932434
2022-09-03T10:20:17.248Z,23.023071
2022-09-03T10:21:24.938Z,22.841797
2022-09-03T10:22:35.295Z,22.720947
2022-09-03T10:23:44.242Z,22.700806
2022-09-03T10:24:52.870Z,22.650452
2022-09-03T10:26:02.555Z,22.318115
2022-09-03T10:27:11.228Z,22.297974
2022-09-03T10:28:18.877Z,22.408752
2022-09-03T10:29:28.526Z,22.348328
2022-09-03T10:30:37.209Z,22.348328
2022-09-03T10:31:46.956Z,22.469177
2022-09-03T10:32:56.706Z,22.49939
2022-09-03T10:34:06.398Z,22.50946
2022-09-03T10:35:16.178Z,22.388611
2022-09-03T10:36:23.852Z,22.358398
2022-09-03T10:37:33.584Z,22.37854
2022-09-03T10:38:43.289Z,22.318115
2022-09-03T10:39:52.551Z,22.177124
2022-09-03T10:41:01.669Z,22.146912
2022-09-03T10:42:11.351Z,22.287903
2022-09-03T10:43:19.993Z,22.428894
2022-09-03T10:44:28.672Z,22.529602
2022-09-03T10:45:37.758Z,22.549744
2022-09-03T10:46:47.111Z,22.569885
2022-09-03T10:47:56.706Z,22.660522
2022-09-03T10:49:04.391Z,22.731018
2022-09-03T10:50:14.114Z,22.942505
2022-09-03T10:51:21.726Z,23.13385
2022-09-03T10:52:30.405Z,23.476257
2022-09-03T10:53:40.111Z,23.828735
2022-09-03T10:54:48.780Z,24.161072
2022-09-03T10:55:58.439Z,24.3927
2022-09-03T10:57:07.120Z,24.51355
2022-09-03T10:58:15.780Z,24.614258
2022-09-03T10:59:29.028Z,24.916382
2022-09-03T11:00:35.190Z,25.107727
2022-09-03T11:01:43.901Z,25.359497
2022-09-03T11:02:53.584Z,25.228577
2022-09-03T11:04:02.216Z,24.986877
2022-09-03T11:05:11.885Z,25.107727
2022-09-03T11:06:21.568Z,25.137939
2022-09-03T11:07:30.245Z,25.158081
2022-09-03T11:08:39.933Z,25.379639
2022-09-03T11:09:48.597Z,25.510559
2022-09-03T11:10:57.291Z,25.379639
2022-09-03T11:12:06.969Z,25.037231
2022-09-03T11:13:14.643Z,24.725037
2022-09-03T11:14:24.316Z,24.835815
2022-09-03T11:15:33.020Z,25.037231
2022-09-03T11:16:40.646Z,25.178223
2022-09-03T11:17:50.340Z,25.379639
2022-09-03T11:18:58.014Z,25.550842
2022-09-03T11:20:07.699Z,25.812683
2022-09-03T11:21:17.359Z,25.913391
2022-09-03T11:22:26.009Z,26.064453
2022-09-03T11:23:35.819Z,26.225586
2022-09-03T11:24:44.497Z,26.326294
2022-09-03T11:25:52.160Z,26.356506
2022-09-03T11:27:01.853Z,26.366577
2022-09-03T11:28:10.517Z,26.336365
2022-09-03T11:29:20.200Z,26.336365
2022-09-03T11:30:29.908Z,26.215515
2022-09-03T11:31:37.587Z,26.205444
2022-09-03T11:32:47.254Z,25.993958
2022-09-03T11:33:56.906Z,26.094666
2022-09-03T11:35:05.597Z,26.15509
2022-09-03T11:36:15.310Z,26.286011
2022-09-03T11:37:23.951Z,26.437073
2022-09-03T11:38:32.629Z,26.557922
2022-09-03T11:39:42.377Z,26.64856
2022-09-03T11:40:50.025Z,26.588135
2022-09-03T11:41:59.688Z,26.698914
2022-09-03T11:43:08.363Z,26.678772
2022-09-03T11:44:17.023Z,26.40686
2022-09-03T11:45:26.700Z,26.336365
2022-09-03T11:46:34.505Z,26.336365
2022-09-03T11:47:43.072Z,26.094666
2022-09-03T11:48:52.753Z,25.993958
2022-09-03T11:50:01.487Z,25.983887
2022-09-03T11:51:10.115Z,26.15509
2022-09-03T11:52:18.832Z,26.306152
2022-09-03T11:53:26.478Z,26.40686
2022-09-03T11:54:36.142Z,26.255798
2022-09-03T11:55:44.922Z,26.15509
2022-09-03T11:56:53.461Z,26.245728
2022-09-03T11:58:03.149Z,26.27594
2022-09-03T11:59:10.826Z,26.306152
2022-09-03T12:00:20.485Z,26.134949
2022-09-03T12:01:29.174Z,25.933533
2022-09-03T12:02:37.941Z,26.054382
2022-09-03T12:03:47.543Z,26.52771
2022-09-03T12:04:56.299Z,27.03125
2022-09-03T12:06:04.876Z,27.393799
2022-09-03T12:07:14.536Z,27.393799
2022-09-03T12:08:24.187Z,27.393799
2022-09-03T12:09:33.908Z,27.454224
2022-09-03T12:10:44.548Z,27.544861
2022-09-03T12:11:53.210Z,27.776489
2022-09-03T12:13:02.867Z,28.118896
2022-09-03T12:14:13.694Z,28.491516
2022-09-03T12:15:20.331Z,28.753357
2022-09-03T12:16:30.039Z,28.934631
2022-09-03T12:17:38.643Z,29.136047
2022-09-03T12:18:48.317Z,29.498596
2022-09-03T12:19:57.387Z,29.820862
2022-09-03T12:21:06.678Z,29.861145
2022-09-03T12:22:16.344Z,29.901428
2022-09-03T12:23:25.088Z,29.951782
2022-09-03T12:24:37.661Z,30.133057
2022-09-03T12:25:43.347Z,30.062561
2022-09-03T12:26:51.056Z,30.032349
2022-09-03T12:28:00.714Z,29.609375
2022-09-03T12:29:09.460Z,29.468384
2022-09-03T12:30:17.040Z,29.357605
2022-09-03T12:31:26.698Z,29.387817
2022-09-03T12:32:35.410Z,29.095764
2022-09-03T12:33:45.089Z,29.065552
2022-09-03T12:34:53.758Z,28.964844
2022-09-03T12:36:02.415Z,29.035339
2022-09-03T12:37:12.082Z,29.015198
2022-09-03T12:38:19.787Z,29.095764
2022-09-03T12:41:23.284Z,28.41095
2022-09-03T12:41:50.791Z,28.934631
2022-09-03T12:44:11.123Z,29.387817
2022-09-03T12:45:19.782Z,28.572083
2022-09-03T12:46:33.275Z,28.139038
2022-09-03T12:47:39.208Z,28.421021
2022-09-03T12:49:29.129Z,28.974915
2022-09-03T12:49:59.530Z,29.256897
2022-09-03T12:52:17.870Z,29.407959
2022-09-03T12:53:26.558Z,29.357605
2022-09-03T12:54:36.201Z,29.186401
2022-09-03T12:55:46.890Z,28.451233
2022-09-03T12:56:55.548Z,28.108826
2022-09-03T12:58:05.221Z,27.91748
2022-09-03T12:59:14.880Z,28.139038
2022-09-03T13:00:23.579Z,28.330383
2022-09-03T13:01:33.494Z,28.219604
2022-09-03T13:02:42.049Z,28.481445
2022-09-03T13:03:50.734Z,28.562012
2022-09-03T13:05:00.421Z,28.692932
2022-09-03T13:06:08.076Z,28.753357
2022-09-03T13:07:17.783Z,28.300171
2022-09-03T13:08:25.420Z,28.018188
2022-09-03T13:09:34.083Z,28.259888
2022-09-03T13:10:43.786Z,28.229675
2022-09-03T13:11:51.447Z,28.2901
2022-09-03T13:13:00.134Z,28.763428
2022-09-03T13:14:09.831Z,29.287109
2022-09-03T13:15:18.499Z,29.559021